Time;durP1;ratioP1;P1;durP2;ratioP2;P2;SDS_P1;SDS_P2;PMS_P1;PMS_P2;Temp;Humidity;BMP_temperature;BMP_pressure;BME280_temperature;BME280_humidity;BME280_pressure;Samples;Min_cycle;Max_cycle;Signal;HPM_P1;HPM_P2
2022/05/08 00:00:24;;;;;;;0.82;0.80;;;20.60;50.00;;;;;;6272150;28;20025;-70
2022/05/08 00:03:24;;;;;;;0.80;0.70;;;20.60;50.00;;;;;;6254430;28;20603;-70
2022/05/08 00:06:25;;;;;;;1.00;0.70;;;20.60;50.10;;;;;;6272398;28;20033;-70
2022/05/08 00:09:25;;;;;;;0.80;0.63;;;20.60;50.10;;;;;;6254231;28;20055;-70
2022/05/08 00:12:27;;;;;;;0.80;0.75;;;20.60;50.20;;;;;;6271143;28;20151;-70
2022/05/08 00:15:28;;;;;;;0.50;0.50;;;20.60;50.10;;;;;;6253910;28;20040;-70
2022/05/08 00:18:28;;;;;;;0.65;0.65;;;20.60;50.10;;;;;;6272049;28;20084;-70
2022/05/08 00:21:29;;;;;;;1.05;0.60;;;20.60;50.10;;;;;;6271245;28;20099;-70
2022/05/08 00:24:29;;;;;;;0.75;0.60;;;20.60;50.10;;;;;;6272175;28;20020;-70
2022/05/08 00:27:30;;;;;;;1.00;0.80;;;20.60;50.10;;;;;;6272177;28;20110;-70
2022/05/08 00:30:31;;;;;;;0.75;0.70;;;20.60;50.10;;;;;;6271705;28;20112;-71
2022/05/08 00:33:31;;;;;;;0.50;0.50;;;20.60;50.10;;;;;;6271542;28;20029;-70
2022/05/08 00:36:32;;;;;;;1.27;0.88;;;20.60;50.10;;;;;;6271611;28;20028;-70
2022/05/08 00:39:33;;;;;;;0.80;0.80;;;20.60;50.10;;;;;;6271222;28;20021;-70
2022/05/08 00:42:33;;;;;;;0.55;0.52;;;20.60;50.10;;;;;;6271398;28;20048;-70
2022/05/08 00:45:37;;;;;;;0.68;0.68;;;20.60;50.10;;;;;;6271177;28;20071;-70
2022/05/08 00:48:38;;;;;;;0.65;0.60;;;20.60;50.10;;;;;;6271429;28;20025;-70
2022/05/08 00:51:39;;;;;;;0.93;0.77;;;20.60;50.10;;;;;;6270581;28;20103;-70
2022/05/08 00:54:40;;;;;;;0.70;0.70;;;20.60;50.10;;;;;;6271076;28;20537;-70
2022/05/08 00:57:42;;;;;;;0.70;0.70;;;20.60;50.10;;;;;;6271051;28;20033;-70
2022/05/08 01:00:42;;;;;;;0.90;0.65;;;20.60;50.20;;;;;;6270970;28;20082;-70
2022/05/08 01:03:43;;;;;;;0.57;0.57;;;20.60;50.20;;;;;;6252716;28;20021;-70
2022/05/08 01:06:45;;;;;;;0.95;0.73;;;20.60;50.10;;;;;;6252840;28;20381;-70
2022/05/08 01:09:46;;;;;;;0.93;0.80;;;20.60;50.10;;;;;;6252126;28;20552;-70
2022/05/08 01:12:46;;;;;;;0.60;0.60;;;20.60;50.10;;;;;;6270474;28;20037;-70
2022/05/08 01:15:48;;;;;;;0.80;0.60;;;20.60;50.20;;;;;;6270037;28;20557;-70
2022/05/08 01:18:49;;;;;;;0.90;0.70;;;20.60;50.10;;;;;;6270036;28;20037;-70
2022/05/08 01:21:50;;;;;;;0.60;0.60;;;20.60;50.10;;;;;;6269749;28;20096;-70
2022/05/08 01:24:51;;;;;;;0.70;0.63;;;20.60;50.20;;;;;;6270090;28;20027;-70
2022/05/08 01:27:52;;;;;;;0.88;0.70;;;20.60;50.20;;;;;;6269833;28;20572;-70
2022/05/08 01:30:54;;;;;;;0.80;0.60;;;20.60;50.20;;;;;;6256124;28;20025;-70
2022/05/08 01:33:54;;;;;;;0.90;0.80;;;20.60;50.20;;;;;;6245119;28;20056;-70
2022/05/08 01:36:55;;;;;;;0.82;0.60;;;20.60;50.30;;;;;;6245043;28;20040;-70
2022/05/08 01:39:56;;;;;;;0.70;0.65;;;20.60;50.20;;;;;;6245003;28;20032;-70
2022/05/08 01:42:57;;;;;;;1.00;0.55;;;20.60;50.20;;;;;;6245110;28;20356;-70
2022/05/08 01:45:58;;;;;;;0.60;0.50;;;20.60;50.20;;;;;;6244895;28;20032;-70
2022/05/08 01:48:59;;;;;;;1.13;0.70;;;20.60;50.20;;;;;;6244750;28;20034;-70
2022/05/08 01:51:59;;;;;;;0.90;0.70;;;20.60;50.20;;;;;;6244638;28;20500;-70
2022/05/08 01:55:01;;;;;;;0.82;0.63;;;20.60;50.30;;;;;;6244343;28;20048;-70
2022/05/08 01:58:02;;;;;;;0.57;0.57;;;20.60;50.20;;;;;;6244684;28;20438;-69
2022/05/08 02:01:08;;;;;;;0.55;0.55;;;20.60;50.90;;;;;;6244115;28;20076;-70
2022/05/08 02:04:15;;;;;;;0.80;0.80;;;20.60;50.20;;;;;;6244382;28;20435;-70
2022/05/08 02:07:15;;;;;;;0.57;0.57;;;20.60;50.30;;;;;;6244355;28;20032;-70
2022/05/08 02:10:17;;;;;;;0.50;0.50;;;20.60;50.90;;;;;;6226766;28;20423;-71
2022/05/08 02:13:18;;;;;;;0.60;0.60;;;20.60;50.30;;;;;;6244258;28;20494;-70
2022/05/08 02:16:19;;;;;;;0.60;0.60;;;20.60;50.30;;;;;;6244209;28;20083;-70
2022/05/08 02:19:19;;;;;;;0.73;0.60;;;20.60;50.20;;;;;;6244160;28;20033;-71
2022/05/08 02:22:20;;;;;;;0.80;0.75;;;20.60;50.30;;;;;;6243781;28;20026;-70
2022/05/08 02:25:21;;;;;;;0.60;0.60;;;20.60;50.30;;;;;;6226168;28;20045;-70
2022/05/08 02:28:21;;;;;;;0.65;0.50;;;20.60;50.30;;;;;;6226374;28;20021;-70
2022/05/08 02:31:22;;;;;;;0.98;0.82;;;20.60;50.30;;;;;;6244015;28;20028;-69
2022/05/08 02:34:22;;;;;;;0.65;0.55;;;20.60;50.30;;;;;;6268614;28;20104;-70
2022/05/08 02:37:23;;;;;;;0.73;0.60;;;20.60;50.40;;;;;;6268481;28;20079;-70
2022/05/08 02:40:24;;;;;;;0.50;0.50;;;20.60;50.30;;;;;;6268584;28;20133;-70
2022/05/08 02:43:24;;;;;;;0.65;0.65;;;20.50;50.20;;;;;;6268282;28;20048;-70
2022/05/08 02:46:25;;;;;;;0.60;0.60;;;20.60;50.30;;;;;;6268404;28;20039;-70
2022/05/08 02:49:26;;;;;;;0.70;0.55;;;20.60;50.30;;;;;;6268225;28;20029;-70
2022/05/08 02:52:26;;;;;;;0.73;0.63;;;20.60;50.30;;;;;;6250531;28;20025;-69
2022/05/08 02:58:46;;;;;;;0.80;0.52;;;20.60;50.30;;;;;;6268192;28;20499;-71
2022/05/08 03:01:47;;;;;;;0.77;0.63;;;20.60;50.40;;;;;;6269360;28;20067;-69
2022/05/08 03:04:48;;;;;;;0.60;0.55;;;20.60;50.30;;;;;;6267381;28;20029;-70
2022/05/08 03:07:48;;;;;;;0.70;0.60;;;20.60;50.40;;;;;;6250728;28;20021;-70
2022/05/08 03:11:36;;;;;;;0.57;0.57;;;20.60;50.30;;;;;;6268398;28;20048;-70
2022/05/08 03:14:11;;;;;;;0.68;0.50;;;20.60;51.00;;;;;;6262286;28;20123;-70
2022/05/08 03:17:12;;;;;;;0.95;0.80;;;20.60;50.30;;;;;;6273274;28;20037;-70
2022/05/08 03:20:13;;;;;;;0.70;0.70;;;20.60;50.30;;;;;;6272380;28;20037;-69
2022/05/08 03:23:17;;;;;;;0.50;0.47;;;20.60;50.40;;;;;;6272215;28;20104;-70
2022/05/08 03:26:20;;;;;;;0.68;0.55;;;20.60;50.40;;;;;;6254637;28;20029;-70
2022/05/08 03:29:21;;;;;;;0.63;0.60;;;20.60;50.40;;;;;;6254210;28;20115;-70
2022/05/08 03:32:21;;;;;;;0.75;0.70;;;20.50;50.40;;;;;;6254317;28;20082;-71
2022/05/08 03:35:22;;;;;;;0.70;0.68;;;20.60;50.40;;;;;;6272330;28;20064;-70
2022/05/08 03:38:23;;;;;;;1.40;0.80;;;20.60;50.50;;;;;;6272197;28;20029;-70
2022/05/08 03:41:23;;;;;;;1.00;0.60;;;20.60;50.40;;;;;;6253807;28;20048;-70
2022/05/08 03:44:24;;;;;;;0.75;0.55;;;20.50;50.40;;;;;;6271985;28;20021;-70
2022/05/08 03:47:24;;;;;;;0.50;0.50;;;20.60;50.50;;;;;;6271971;28;20443;-70
2022/05/08 03:50:25;;;;;;;0.68;0.63;;;20.60;50.40;;;;;;6271766;28;20017;-70
2022/05/08 03:53:26;;;;;;;0.75;0.70;;;20.60;50.50;;;;;;6254004;28;20025;-70
2022/05/08 03:56:27;;;;;;;0.52;0.45;;;20.50;50.40;;;;;;6270368;28;20029;-70
2022/05/08 03:59:28;;;;;;;0.70;0.70;;;20.50;50.40;;;;;;6271564;28;20021;-70
2022/05/08 04:02:29;;;;;;;0.85;0.70;;;20.50;50.40;;;;;;6271323;28;20028;-70
2022/05/08 04:05:29;;;;;;;0.88;0.80;;;20.50;50.40;;;;;;6271741;28;20044;-70
2022/05/08 04:08:32;;;;;;;1.17;0.65;;;20.50;50.40;;;;;;6253375;28;20041;-70
2022/05/08 04:11:32;;;;;;;1.00;0.60;;;20.50;50.40;;;;;;6271413;28;20060;-70
2022/05/08 04:14:33;;;;;;;0.55;0.55;;;20.50;50.40;;;;;;6271280;28;20035;-71
2022/05/08 04:17:33;;;;;;;1.02;0.60;;;20.60;50.40;;;;;;6271330;28;20044;-70
2022/05/08 04:20:34;;;;;;;0.93;0.70;;;20.50;50.40;;;;;;6271105;28;20051;-70
2022/05/08 04:26:53;;;;;;;1.10;0.70;;;20.50;50.40;;;;;;6270676;28;20025;-70
2022/05/08 04:29:54;;;;;;;0.70;0.60;;;20.50;50.40;;;;;;6247008;28;20447;-70
2022/05/08 04:32:54;;;;;;;0.60;0.60;;;20.60;50.50;;;;;;6228333;28;20396;-69
2022/05/08 04:35:55;;;;;;;1.25;0.60;;;20.50;50.40;;;;;;6246026;28;20033;-70
2022/05/08 04:38:56;;;;;;;0.77;0.50;;;20.50;50.40;;;;;;6245919;28;20025;-70
2022/05/08 04:41:57;;;;;;;1.10;0.60;;;20.50;50.40;;;;;;6227640;28;20064;-70
2022/05/08 04:44:59;;;;;;;0.80;0.60;;;20.50;50.40;;;;;;6228205;28;20026;-70
2022/05/08 04:47:59;;;;;;;1.15;0.70;;;20.50;50.40;;;;;;6227766;28;20017;-70
2022/05/08 04:51:00;;;;;;;0.50;0.50;;;20.50;50.40;;;;;;6228020;28;20021;-70
2022/05/08 04:54:01;;;;;;;0.50;0.50;;;20.50;50.40;;;;;;6252109;28;20032;-70
2022/05/08 04:57:02;;;;;;;0.43;0.43;;;20.50;50.40;;;;;;6252659;28;20036;-70
2022/05/08 05:00:40;;;;;;;0.70;0.60;;;20.50;50.40;;;;;;6269842;28;20051;-70
2022/05/08 05:03:41;;;;;;;1.05;0.65;;;20.50;50.40;;;;;;6269869;28;20032;-70
2022/05/08 05:06:43;;;;;;;0.90;0.80;;;20.50;50.50;;;;;;6270430;28;20021;-69
2022/05/08 05:09:43;;;;;;;0.75;0.50;;;20.50;50.40;;;;;;6268301;28;20048;-70
2022/05/08 05:12:44;;;;;;;0.45;0.45;;;20.50;50.40;;;;;;6270014;28;20040;-70
2022/05/08 05:15:45;;;;;;;0.98;0.65;;;20.50;50.40;;;;;;6252024;28;20090;-70
2022/05/08 05:18:45;;;;;;;0.65;0.65;;;20.50;50.40;;;;;;6252216;28;20059;-70
2022/05/08 05:21:46;;;;;;;1.20;0.63;;;20.50;50.40;;;;;;6252079;28;20455;-70
2022/05/08 05:24:47;;;;;;;1.00;0.70;;;20.50;50.50;;;;;;6269872;28;20122;-70
2022/05/08 05:27:47;;;;;;;1.05;0.70;;;20.50;50.40;;;;;;6269691;28;20025;-69
2022/05/08 05:30:48;;;;;;;0.90;0.60;;;20.50;50.40;;;;;;6269642;28;20040;-70
2022/05/08 05:33:49;;;;;;;0.70;0.60;;;20.50;50.40;;;;;;6251412;28;20074;-70
2022/05/08 05:36:49;;;;;;;0.55;0.50;;;20.50;50.50;;;;;;6251124;28;20035;-70
2022/05/08 05:39:50;;;;;;;0.90;0.60;;;20.50;50.50;;;;;;6269559;28;20017;-70
2022/05/08 05:42:52;;;;;;;1.00;0.60;;;20.50;50.40;;;;;;6251538;28;20553;-70
2022/05/08 05:49:12;;;;;;;0.50;0.50;;;20.50;50.50;;;;;;6269986;28;20438;-69
2022/05/08 05:52:12;;;;;;;1.10;0.70;;;20.50;50.50;;;;;;6269282;28;20082;-70
2022/05/08 05:55:13;;;;;;;0.93;0.70;;;20.50;50.50;;;;;;6268630;28;20029;-70
2022/05/08 05:58:14;;;;;;;0.40;0.40;;;20.50;50.40;;;;;;6251301;28;20031;-70
2022/05/08 06:01:14;;;;;;;0.68;0.60;;;20.50;50.50;;;;;;6250651;28;20024;-69
2022/05/08 06:04:15;;;;;;;1.10;0.60;;;20.50;50.50;;;;;;6268880;28;20606;-70
2022/05/08 06:07:15;;;;;;;0.82;0.63;;;20.50;50.40;;;;;;6269205;28;20021;-70
2022/05/08 06:10:16;;;;;;;1.27;0.90;;;20.50;50.50;;;;;;6250739;28;20415;-70
2022/05/08 06:13:17;;;;;;;0.60;0.60;;;20.50;50.50;;;;;;6268369;28;20506;-70
2022/05/08 06:16:18;;;;;;;0.60;0.60;;;20.50;50.50;;;;;;6250568;28;20021;-70
2022/05/08 06:19:18;;;;;;;0.80;0.55;;;20.50;50.50;;;;;;6268487;28;20025;-69
2022/05/08 06:22:19;;;;;;;0.60;0.50;;;20.50;50.50;;;;;;6250735;28;20048;-69
2022/05/08 06:25:20;;;;;;;0.90;0.60;;;20.50;50.50;;;;;;6268268;28;20019;-70
2022/05/08 06:28:20;;;;;;;0.70;0.63;;;20.50;50.50;;;;;;6250871;28;20104;-67
2022/05/08 06:31:22;;;;;;;0.60;0.50;;;20.50;50.50;;;;;;6268656;28;20033;-70
2022/05/08 06:34:23;;;;;;;1.02;0.60;;;20.50;50.60;;;;;;6268184;28;20025;-69
2022/05/08 06:37:23;;;;;;;0.60;0.52;;;20.50;50.60;;;;;;6268630;28;20025;-69
2022/05/08 06:40:25;;;;;;;0.77;0.75;;;20.50;50.50;;;;;;6268601;28;20020;-68
2022/05/08 06:43:26;;;;;;;1.13;0.70;;;20.50;50.60;;;;;;6267974;28;20028;-70
2022/05/08 06:46:31;;;;;;;0.98;0.65;;;20.50;50.50;;;;;;6250385;28;20025;-70
2022/05/08 06:49:31;;;;;;;0.60;0.50;;;20.50;50.50;;;;;;6271678;28;20032;-70
2022/05/08 06:52:32;;;;;;;0.85;0.70;;;20.50;50.50;;;;;;6273195;28;20025;-70
2022/05/08 06:55:34;;;;;;;2.65;1.10;;;20.50;50.60;;;;;;6254948;28;20036;-70
2022/05/08 07:01:34;;;;;;;0.70;0.70;;;20.50;50.50;;;;;;6255072;28;20403;-70
2022/05/08 07:01:55;;;;;;;1.48;0.80;;;20.50;50.60;;;;;;6272738;28;20033;-71
2022/05/08 07:04:55;;;;;;;0.60;0.50;;;20.50;50.50;;;;;;6272998;28;20024;-70
2022/05/08 07:07:56;;;;;;;0.80;0.70;;;20.50;50.60;;;;;;6273076;28;20392;-70
2022/05/08 07:10:57;;;;;;;0.60;0.60;;;20.50;50.60;;;;;;6254842;28;20045;-70
2022/05/08 07:13:59;;;;;;;0.50;0.50;;;20.50;50.60;;;;;;6272803;28;20048;-70
2022/05/08 07:17:00;;;;;;;0.60;0.60;;;20.50;50.60;;;;;;6254773;28;20111;-70
2022/05/08 07:20:02;;;;;;;0.93;0.70;;;20.50;50.60;;;;;;6272680;28;20059;-70
2022/05/08 07:23:03;;;;;;;0.98;0.82;;;20.50;50.60;;;;;;6272945;28;20029;-69
2022/05/08 07:26:05;;;;;;;0.65;0.60;;;20.50;50.60;;;;;;6273030;28;20032;-69
2022/05/08 07:29:06;;;;;;;1.13;0.75;;;20.50;50.60;;;;;;6273729;28;20102;-69
2022/05/08 07:32:07;;;;;;;0.60;0.60;;;20.50;50.60;;;;;;6255025;28;20052;-70
2022/05/08 07:38:28;;;;;;;1.02;0.70;;;20.50;50.60;;;;;;6273320;28;20100;-69
2022/05/08 07:41:30;;;;;;;1.67;0.70;;;20.50;50.60;;;;;;6273759;28;20116;-69
2022/05/08 07:44:30;;;;;;;0.80;0.52;;;20.50;50.60;;;;;;6255573;28;20032;-71
2022/05/08 07:47:32;;;;;;;0.82;0.70;;;20.50;50.60;;;;;;6255398;28;20025;-70
2022/05/08 07:50:34;;;;;;;0.57;0.50;;;20.50;50.60;;;;;;6255005;28;20116;-69
2022/05/08 07:53:34;;;;;;;0.52;0.52;;;20.50;50.60;;;;;;6271842;28;20151;-70
2022/05/08 07:56:35;;;;;;;0.98;0.40;;;20.50;50.60;;;;;;6253964;28;20025;-71
2022/05/08 07:59:35;;;;;;;0.68;0.60;;;20.50;50.70;;;;;;6271682;28;20021;-71
2022/05/08 08:02:37;;;;;;;1.10;0.77;;;20.50;50.60;;;;;;6272952;28;20040;-69
2022/05/08 08:05:38;;;;;;;0.88;0.60;;;20.50;50.60;;;;;;6272301;28;20025;-69
2022/05/08 08:08:39;;;;;;;1.00;0.70;;;20.50;50.60;;;;;;6271425;28;20052;-69
2022/05/08 08:11:41;;;;;;;1.13;0.60;;;20.50;50.60;;;;;;6272111;28;20025;-70
2022/05/08 08:14:41;;;;;;;0.75;0.55;;;20.50;50.70;;;;;;6270949;28;20082;-70
2022/05/08 08:17:42;;;;;;;0.70;0.60;;;20.50;50.60;;;;;;6273176;28;20619;-70
2022/05/08 08:20:43;;;;;;;0.98;0.68;;;20.50;50.70;;;;;;6271443;28;20037;-70
2022/05/08 08:23:44;;;;;;;1.10;0.68;;;20.50;50.70;;;;;;6253837;28;20036;-69
2022/05/08 08:26:45;;;;;;;0.73;0.60;;;20.50;50.70;;;;;;6269568;28;20028;-69
2022/05/08 08:29:46;;;;;;;1.30;0.88;;;20.50;50.60;;;;;;6271379;28;20025;-68
2022/05/08 08:32:47;;;;;;;0.60;0.50;;;20.50;50.70;;;;;;6254065;28;20033;-70
2022/05/08 08:35:48;;;;;;;0.73;0.70;;;20.50;50.70;;;;;;6271553;28;20517;-69
2022/05/08 08:38:49;;;;;;;1.00;0.60;;;20.50;50.70;;;;;;6270996;28;20029;-69
2022/05/08 08:42:08;;;;;;;2.55;0.70;;;20.50;50.60;;;;;;6270842;28;20029;-68
2022/05/08 08:48:31;;;;;;;0.60;0.60;;;20.50;50.80;;;;;;6257386;28;20492;-68
2022/05/08 08:51:33;;;;;;;1.00;0.80;;;20.50;50.80;;;;;;6267357;28;20025;-68
2022/05/08 08:54:34;;;;;;;1.42;0.60;;;20.50;50.70;;;;;;6268329;28;20484;-68
2022/05/08 08:57:35;;;;;;;0.70;0.52;;;20.50;50.70;;;;;;6244435;28;20107;-68
2022/05/08 09:00:36;;;;;;;1.55;0.60;;;20.50;50.70;;;;;;6256205;28;20028;-68
2022/05/08 09:03:37;;;;;;;0.70;0.70;;;20.50;50.70;;;;;;6241243;28;20020;-67
2022/05/08 09:06:39;;;;;;;1.00;0.60;;;20.50;51.00;;;;;;6242769;28;20022;-69
2022/05/08 09:09:39;;;;;;;0.93;0.50;;;20.60;50.90;;;;;;6242222;28;20203;-67
2022/05/08 09:12:59;;;;;;;0.50;0.50;;;20.60;50.60;;;;;;6246193;28;20033;-67
2022/05/08 09:16:02;;;;;;;0.85;0.77;;;20.60;50.70;;;;;;6267172;28;20380;-68
2022/05/08 09:19:04;;;;;;;1.13;0.80;;;20.60;50.70;;;;;;6268646;28;20079;-69
2022/05/08 09:22:11;;;;;;;0.85;0.70;;;20.60;50.70;;;;;;6264492;28;20025;-68
2022/05/08 09:25:11;;;;;;;1.50;0.50;;;20.60;50.60;;;;;;6262262;28;20021;-70
2022/05/08 09:28:20;;;;;;;1.90;0.80;;;20.60;50.60;;;;;;6268714;28;20029;-70
2022/05/08 09:31:22;;;;;;;0.60;0.60;;;20.60;50.60;;;;;;6250036;28;20116;-70
2022/05/08 09:34:22;;;;;;;0.65;0.60;;;20.70;50.60;;;;;;6268953;28;20025;-70
2022/05/08 09:37:25;;;;;;;1.35;0.70;;;20.70;50.70;;;;;;6250665;28;20025;-70
2022/05/08 09:40:26;;;;;;;0.50;0.50;;;20.70;50.60;;;;;;6263816;28;20123;-70
2022/05/08 09:43:30;;;;;;;1.77;0.63;;;20.70;50.70;;;;;;6248054;28;20029;-70
2022/05/08 09:46:36;;;;;;;0.60;0.40;;;20.70;50.60;;;;;;6250217;28;20017;-70
2022/05/08 09:49:37;;;;;;;0.95;0.50;;;20.70;50.70;;;;;;6250833;28;20029;-70
2022/05/08 09:52:39;;;;;;;0.80;0.60;;;20.70;50.70;;;;;;6250037;28;20550;-70
2022/05/08 09:55:40;;;;;;;1.13;0.80;;;20.70;50.60;;;;;;6250471;28;20031;-71
2022/05/08 09:58:41;;;;;;;0.95;0.60;;;20.70;50.60;;;;;;6268300;28;20063;-70
2022/05/08 10:01:42;;;;;;;0.98;0.60;;;20.70;50.70;;;;;;6268000;28;20082;-70
2022/05/08 10:04:43;;;;;;;1.05;0.60;;;20.70;50.70;;;;;;6268415;28;20108;-70
2022/05/08 10:07:48;;;;;;;0.80;0.70;;;20.70;50.60;;;;;;6253074;28;20486;-69
2022/05/08 10:14:24;;;;;;;1.17;0.60;;;20.70;50.60;;;;;;6267848;28;20040;-73
2022/05/08 10:17:32;;;;;;;2.13;0.73;;;20.70;50.60;;;;;;6268206;28;20013;-71
2022/05/08 10:21:08;;;;;;;0.85;0.60;;;20.70;50.60;;;;;;6250336;28;20021;-70
2022/05/08 10:24:35;;;;;;;1.85;0.50;;;20.70;50.60;;;;;;6266888;28;20395;-70
2022/05/08 10:27:36;;;;;;;0.93;0.80;;;20.70;50.70;;;;;;6221976;28;20053;-69
2022/05/08 10:30:38;;;;;;;0.40;0.40;;;20.70;50.60;;;;;;6259939;28;20071;-70
2022/05/08 10:34:06;;;;;;;0.68;0.50;;;20.70;50.60;;;;;;6266938;28;20108;-70
2022/05/08 10:37:13;;;;;;;0.70;0.50;;;20.70;50.60;;;;;;6258793;28;20353;-70
2022/05/08 10:40:23;;;;;;;1.38;0.70;;;20.70;50.60;;;;;;6265680;28;20405;-70
2022/05/08 10:43:30;;;;;;;0.60;0.50;;;20.70;50.70;;;;;;6267270;28;20024;-70
2022/05/08 10:46:31;;;;;;;0.68;0.60;;;20.70;50.60;;;;;;6241139;28;20033;-71
2022/05/08 10:49:31;;;;;;;1.00;0.60;;;20.70;50.70;;;;;;6255198;28;20663;-70
2022/05/08 10:52:33;;;;;;;0.85;0.63;;;20.70;50.60;;;;;;6267291;28;20070;-70
2022/05/08 10:55:33;;;;;;;0.93;0.73;;;20.70;50.60;;;;;;6267201;28;20071;-70
2022/05/08 10:58:40;;;;;;;0.70;0.60;;;20.70;50.60;;;;;;6241871;28;20590;-70
2022/05/08 11:01:49;;;;;;;1.20;0.68;;;20.70;50.60;;;;;;6250130;28;20053;-70
2022/05/08 11:04:51;;;;;;;0.60;0.60;;;20.70;50.70;;;;;;6250198;28;20060;-70
2022/05/08 11:07:56;;;;;;;0.57;0.47;;;20.70;50.60;;;;;;6249659;28;20048;-70
2022/05/08 11:11:02;;;;;;;0.43;0.43;;;20.70;50.60;;;;;;6248701;28;20041;-70
2022/05/08 11:14:03;;;;;;;1.00;0.60;;;20.70;50.60;;;;;;6262310;28;20032;-70
2022/05/08 11:17:16;;;;;;;1.10;0.55;;;20.70;50.60;;;;;;6248957;28;20024;-70
2022/05/08 11:20:17;;;;;;;0.60;0.50;;;20.70;50.70;;;;;;6266793;28;20025;-71
2022/05/08 11:23:19;;;;;;;0.90;0.60;;;20.70;50.60;;;;;;6241129;28;20025;-71
2022/05/08 11:26:31;;;;;;;0.80;0.50;;;20.70;50.60;;;;;;6239098;28;20178;-71
2022/05/08 11:29:31;;;;;;;0.70;0.52;;;20.70;50.60;;;;;;6241935;28;20113;-72
2022/05/08 11:36:07;;;;;;;1.05;0.70;;;20.70;50.60;;;;;;6269575;28;20041;-72
2022/05/08 11:39:18;;;;;;;0.57;0.50;;;20.70;50.60;;;;;;6271269;28;20442;-71
2022/05/08 11:42:20;;;;;;;0.85;0.47;;;20.70;50.60;;;;;;6252811;28;20032;-72
2022/05/08 11:45:21;;;;;;;0.82;0.60;;;20.70;50.70;;;;;;6253301;28;20656;-71
2022/05/08 11:48:31;;;;;;;0.57;0.50;;;20.70;50.60;;;;;;6271175;28;20029;-72
2022/05/08 11:51:46;;;;;;;0.80;0.68;;;20.70;50.70;;;;;;6270239;28;20021;-71
2022/05/08 11:54:58;;;;;;;0.50;0.50;;;20.70;51.40;;;;;;6270755;28;20648;-72
2022/05/08 11:57:59;;;;;;;0.85;0.73;;;20.70;50.60;;;;;;6269338;28;20440;-74
2022/05/08 12:01:00;;;;;;;1.10;0.60;;;20.70;50.60;;;;;;6252402;28;20111;-71
2022/05/08 12:04:34;;;;;;;0.63;0.55;;;20.70;50.70;;;;;;6253969;28;20029;-71
2022/05/08 12:07:39;;;;;;;0.50;0.50;;;20.70;50.70;;;;;;6255002;28;20044;-71
2022/05/08 12:10:41;;;;;;;0.90;0.60;;;20.70;50.70;;;;;;6269907;28;20048;-73
2022/05/08 12:14:04;;;;;;;0.60;0.50;;;20.70;50.70;;;;;;6251690;28;20033;-74
2022/05/08 12:17:05;;;;;;;0.93;0.50;;;20.70;50.70;;;;;;6252136;28;20510;-74
2022/05/08 12:20:13;;;;;;;0.85;0.50;;;20.70;50.70;;;;;;6252090;28;20029;-73
2022/05/08 12:23:15;;;;;;;0.70;0.60;;;20.70;50.70;;;;;;6254494;28;20021;-72
2022/05/08 12:26:16;;;;;;;0.85;0.50;;;20.70;50.70;;;;;;6255304;28;20026;-71
2022/05/08 12:29:22;;;;;;;1.80;0.50;;;20.70;50.70;;;;;;6244947;28;20041;-73
2022/05/08 12:32:27;;;;;;;2.58;0.50;;;20.70;50.70;;;;;;6243598;28;20065;-71
2022/05/08 12:35:28;;;;;;;1.25;0.65;;;20.70;50.70;;;;;;6243547;28;20021;-74
2022/05/08 12:38:28;;;;;;;0.50;0.50;;;20.70;50.70;;;;;;6244804;28;20495;-74
2022/05/08 12:41:30;;;;;;;0.75;0.65;;;20.70;50.70;;;;;;6259859;28;20051;-74
2022/05/08 12:44:33;;;;;;;0.88;0.60;;;20.70;50.70;;;;;;6269118;28;20100;-74
2022/05/08 12:47:34;;;;;;;0.70;0.60;;;20.70;50.70;;;;;;6251137;28;20032;-73
2022/05/08 12:50:34;;;;;;;0.60;0.52;;;20.70;50.70;;;;;;6268677;28;20424;-72
2022/05/08 12:53:35;;;;;;;0.85;0.70;;;20.70;50.70;;;;;;6268999;28;20032;-72
2022/05/08 12:56:36;;;;;;;1.20;0.80;;;20.70;51.40;;;;;;6268975;28;20017;-71
2022/05/08 12:59:43;;;;;;;0.50;0.50;;;20.70;51.10;;;;;;6251073;28;20037;-71
2022/05/08 13:02:44;;;;;;;0.70;0.57;;;20.80;50.70;;;;;;6268553;28;20083;-71
2022/05/08 13:05:45;;;;;;;0.77;0.68;;;20.80;51.40;;;;;;6251157;28;20479;-71
2022/05/08 13:08:45;;;;;;;1.77;0.60;;;20.80;50.70;;;;;;6268387;28;20083;-71
2022/05/08 13:11:48;;;;;;;2.47;0.68;;;20.80;50.70;;;;;;6268828;28;20033;-72
2022/05/08 13:14:48;;;;;;;1.75;0.40;;;20.80;50.70;;;;;;6250587;28;20032;-71
2022/05/08 13:17:49;;;;;;;0.70;0.50;;;20.70;50.00;;;;;;6268796;28;20036;-72
2022/05/08 13:20:49;;;;;;;1.00;0.77;;;20.70;48.50;;;;;;6268438;28;20031;-70
2022/05/08 13:23:50;;;;;;;0.68;0.60;;;20.80;47.70;;;;;;6265213;28;20024;-71
2022/05/08 13:26:51;;;;;;;1.27;0.60;;;20.90;47.40;;;;;;6287392;28;20020;-71
2022/05/08 13:29:53;;;;;;;1.27;0.60;;;21.00;47.10;;;;;;6268520;28;20029;-70
2022/05/08 13:32:53;;;;;;;1.02;0.60;;;21.10;47.00;;;;;;6268168;28;20392;-71
2022/05/08 13:35:54;;;;;;;2.78;0.60;;;21.20;47.20;;;;;;6250374;28;20028;-72
2022/05/08 13:38:56;;;;;;;1.77;0.60;;;21.20;46.90;;;;;;6267040;28;20124;-71
2022/05/08 13:41:58;;;;;;;3.22;0.93;;;21.30;46.70;;;;;;6241837;28;20025;-70
2022/05/08 13:44:59;;;;;;;1.35;0.70;;;21.30;46.50;;;;;;6243404;28;20026;-71
2022/05/08 13:48:00;;;;;;;2.25;0.75;;;21.40;46.40;;;;;;6242217;28;20116;-70
2022/05/08 13:51:00;;;;;;;2.20;0.57;;;21.40;46.50;;;;;;6250001;28;20033;-71
2022/05/08 13:54:02;;;;;;;2.38;0.50;;;21.40;46.50;;;;;;6249953;28;20554;-71
2022/05/08 13:57:05;;;;;;;3.13;0.70;;;21.40;46.50;;;;;;6267166;28;20029;-72
2022/05/08 14:00:11;;;;;;;1.75;0.60;;;21.50;46.40;;;;;;6249609;28;20090;-71
2022/05/08 14:03:12;;;;;;;1.15;0.60;;;21.40;46.30;;;;;;6267521;28;20024;-71
2022/05/08 14:06:12;;;;;;;2.20;0.73;;;21.40;46.30;;;;;;6267787;28;20395;-72
2022/05/08 14:09:15;;;;;;;1.55;0.93;;;21.40;46.30;;;;;;6248906;28;20053;-69
2022/05/08 14:12:15;;;;;;;1.40;0.68;;;21.50;46.30;;;;;;6249256;28;20519;-70
2022/05/08 14:15:20;;;;;;;0.50;0.50;;;21.40;46.30;;;;;;6267665;28;20071;-70
2022/05/08 14:18:21;;;;;;;;;;;21.40;46.20;;;;;;6250214;28;20028;-69
2022/05/08 14:21:22;;;;;;;1.17;0.50;;;21.40;46.20;;;;;;6266909;28;20356;-66
2022/05/08 14:24:22;;;;;;;1.55;0.70;;;21.40;46.20;;;;;;6251097;28;20454;-63
2022/05/08 14:27:23;;;;;;;0.80;0.40;;;21.40;46.10;;;;;;6249186;28;20024;-64
2022/05/08 14:30:24;;;;;;;0.60;0.60;;;21.40;46.10;;;;;;6266861;28;20021;-64
2022/05/08 14:36:43;;;;;;;2.53;0.70;;;21.40;46.00;;;;;;6245224;28;20042;-63
2022/05/08 14:39:44;;;;;;;1.67;0.52;;;21.40;46.00;;;;;;6242091;28;20542;-66
2022/05/08 14:42:44;;;;;;;0.85;0.70;;;21.30;47.50;;;;;;6241836;28;20022;-64
2022/05/08 14:45:45;;;;;;;0.73;0.63;;;21.10;48.10;;;;;;6264409;28;20033;-69
2022/05/08 14:48:46;;;;;;;0.93;0.60;;;21.10;48.00;;;;;;6266337;28;20025;-69
2022/05/08 14:51:47;;;;;;;1.17;0.50;;;21.00;48.70;;;;;;6266673;28;20098;-65
2022/05/08 14:54:48;;;;;;;0.77;0.50;;;21.00;48.90;;;;;;6265302;28;20461;-72
2022/05/08 14:57:49;;;;;;;0.68;0.32;;;21.00;48.80;;;;;;6266578;28;20041;-71
2022/05/08 15:00:49;;;;;;;0.63;0.55;;;21.00;48.70;;;;;;6248683;28;20029;-71
2022/05/08 15:03:50;;;;;;;1.55;0.50;;;20.90;48.90;;;;;;6248567;28;20055;-70
2022/05/08 15:06:51;;;;;;;1.02;0.57;;;20.90;48.70;;;;;;6249566;28;20021;-70
2022/05/08 15:09:52;;;;;;;1.15;0.45;;;20.90;48.70;;;;;;6259969;28;20906;-68
2022/05/08 15:12:54;;;;;;;2.17;0.80;;;20.90;48.80;;;;;;6256017;28;20032;-71
2022/05/08 15:15:54;;;;;;;1.33;0.50;;;20.90;48.70;;;;;;6274004;28;20056;-70
2022/05/08 15:18:56;;;;;;;0.90;0.63;;;20.90;48.80;;;;;;6255549;28;20025;-72
2022/05/08 15:21:56;;;;;;;0.93;0.60;;;20.90;48.80;;;;;;6273035;28;20036;-71
2022/05/08 15:24:57;;;;;;;0.50;0.40;;;20.90;49.00;;;;;;6252231;28;20082;-71
2022/05/08 15:27:58;;;;;;;0.75;0.57;;;20.90;49.00;;;;;;6231757;28;20033;-71
2022/05/08 15:30:58;;;;;;;0.95;0.40;;;20.90;49.00;;;;;;6230850;28;20104;-71
2022/05/08 15:33:59;;;;;;;0.65;0.60;;;20.90;49.10;;;;;;6248713;28;20021;-71
2022/05/08 15:37:00;;;;;;;0.57;0.40;;;20.90;49.10;;;;;;6247139;28;20492;-71
2022/05/08 15:40:01;;;;;;;0.57;0.40;;;20.90;49.10;;;;;;6247384;28;20025;-70
2022/05/08 15:43:04;;;;;;;0.40;0.40;;;20.90;49.20;;;;;;6247844;28;20022;-71
2022/05/08 15:46:05;;;;;;;1.00;0.60;;;20.90;49.20;;;;;;6255357;28;20029;-71
2022/05/08 15:49:06;;;;;;;1.25;0.52;;;20.90;49.30;;;;;;6254925;28;20017;-70
2022/05/08 15:52:07;;;;;;;0.52;0.50;;;21.00;49.50;;;;;;6253653;28;20032;-71
2022/05/08 15:55:09;;;;;;;0.98;0.40;;;21.00;49.50;;;;;;6271544;28;20036;-69
2022/05/08 15:58:10;;;;;;;0.65;0.50;;;20.90;49.40;;;;;;6252724;28;20037;-72
2022/05/08 16:01:11;;;;;;;1.15;0.50;;;21.00;49.50;;;;;;6270854;28;20110;-71
2022/05/08 16:04:12;;;;;;;1.50;0.85;;;21.00;49.50;;;;;;6252974;28;20028;-71
2022/05/08 16:07:14;;;;;;;4.35;0.63;;;21.00;49.50;;;;;;6270817;28;20327;-70
2022/05/08 16:10:14;;;;;;;1.65;0.57;;;20.90;49.40;;;;;;6270317;28;20423;-71
2022/05/08 16:23:13;;;;;;;1.77;0.60;;;20.90;49.60;;;;;;6270302;28;20037;-69
2022/05/08 16:26:15;;;;;;;0.68;0.47;;;20.90;49.60;;;;;;6237789;28;20063;-71